sensor_id;sensor_type;location;lat;lon;timestamp;P1;durP1;ratioP1;P2;durP2;ratioP2
21634;SDS011;10979;48.306;9.830;2023-01-19T00:00:23;0.50;;;0.50;;
21634;SDS011;10979;48.306;9.830;2023-01-19T00:02:49;0.50;;;0.50;;
21634;SDS011;10979;48.306;9.830;2023-01-19T00:05:15;0.50;;;0.50;;
21634;SDS011;10979;48.306;9.830;2023-01-19T00:07:41;0.50;;;0.50;;
21634;SDS011;10979;48.306;9.830;2023-01-19T00:10:07;0.50;;;0.50;;
21634;SDS011;10979;48.306;9.830;2023-01-19T00:12:33;0.50;;;0.50;;
21634;SDS011;10979;48.306;9.830;2023-01-19T00:14:59;0.50;;;0.50;;
21634;SDS011;10979;48.306;9.830;2023-01-19T00:17:24;0.50;;;0.50;;
21634;SDS011;10979;48.306;9.830;2023-01-19T00:19:50;0.50;;;0.50;;
21634;SDS011;10979;48.306;9.830;2023-01-19T00:22:16;0.50;;;0.50;;
21634;SDS011;10979;48.306;9.830;2023-01-19T00:24:41;0.50;;;0.50;;
21634;SDS011;10979;48.306;9.830;2023-01-19T00:27:08;0.50;;;0.50;;
21634;SDS011;10979;48.306;9.830;2023-01-19T00:29:33;0.50;;;0.50;;
21634;SDS011;10979;48.306;9.830;2023-01-19T00:31:59;0.50;;;0.50;;
21634;SDS011;10979;48.306;9.830;2023-01-19T00:34:25;0.50;;;0.50;;
21634;SDS011;10979;48.306;9.830;2023-01-19T00:36:51;0.50;;;0.50;;
21634;SDS011;10979;48.306;9.830;2023-01-19T00:39:17;0.50;;;0.50;;
21634;SDS011;10979;48.306;9.830;2023-01-19T00:41:42;0.50;;;0.50;;
21634;SDS011;10979;48.306;9.830;2023-01-19T00:44:26;0.50;;;0.50;;
21634;SDS011;10979;48.306;9.830;2023-01-19T00:46:52;0.50;;;0.50;;
21634;SDS011;10979;48.306;9.830;2023-01-19T00:49:18;0.50;;;0.50;;
21634;SDS011;10979;48.306;9.830;2023-01-19T00:51:44;0.50;;;0.50;;
21634;SDS011;10979;48.306;9.830;2023-01-19T00:54:09;0.50;;;0.50;;
21634;SDS011;10979;48.306;9.830;2023-01-19T00:56:35;0.50;;;0.50;;
21634;SDS011;10979;48.306;9.830;2023-01-19T00:59:01;0.50;;;0.50;;
21634;SDS011;10979;48.306;9.830;2023-01-19T01:01:27;0.50;;;0.50;;
21634;SDS011;10979;48.306;9.830;2023-01-19T01:03:52;0.50;;;0.50;;
21634;SDS011;10979;48.306;9.830;2023-01-19T01:06:19;0.50;;;0.50;;
21634;SDS011;10979;48.306;9.830;2023-01-19T01:08:46;0.50;;;0.50;;
21634;SDS011;10979;48.306;9.830;2023-01-19T01:11:12;0.50;;;0.50;;
21634;SDS011;10979;48.306;9.830;2023-01-19T01:13:37;0.50;;;0.50;;
21634;SDS011;10979;48.306;9.830;2023-01-19T01:16:03;0.50;;;0.50;;
21634;SDS011;10979;48.306;9.830;2023-01-19T01:18:29;0.50;;;0.50;;
21634;SDS011;10979;48.306;9.830;2023-01-19T01:21:02;0.50;;;0.50;;
21634;SDS011;10979;48.306;9.830;2023-01-19T01:23:28;0.50;;;0.50;;
21634;SDS011;10979;48.306;9.830;2023-01-19T01:25:54;0.50;;;0.50;;
21634;SDS011;10979;48.306;9.830;2023-01-19T01:28:20;0.55;;;0.55;;
21634;SDS011;10979;48.306;9.830;2023-01-19T01:30:45;0.60;;;0.60;;
21634;SDS011;10979;48.306;9.830;2023-01-19T01:33:11;0.50;;;0.50;;
21634;SDS011;10979;48.306;9.830;2023-01-19T01:35:38;0.60;;;0.60;;
21634;SDS011;10979;48.306;9.830;2023-01-19T01:38:04;0.60;;;0.60;;
21634;SDS011;10979;48.306;9.830;2023-01-19T01:40:30;0.60;;;0.60;;
21634;SDS011;10979;48.306;9.830;2023-01-19T01:42:55;0.60;;;0.60;;
21634;SDS011;10979;48.306;9.830;2023-01-19T01:47:52;0.60;;;0.60;;
21634;SDS011;10979;48.306;9.830;2023-01-19T01:50:22;0.60;;;0.60;;
21634;SDS011;10979;48.306;9.830;2023-01-19T01:52:57;0.50;;;0.50;;
21634;SDS011;10979;48.306;9.830;2023-01-19T01:55:28;0.60;;;0.60;;
21634;SDS011;10979;48.306;9.830;2023-01-19T01:57:57;0.60;;;0.60;;
21634;SDS011;10979;48.306;9.830;2023-01-19T02:00:26;0.60;;;0.60;;
21634;SDS011;10979;48.306;9.830;2023-01-19T02:02:52;0.60;;;0.60;;
21634;SDS011;10979;48.306;9.830;2023-01-19T02:05:25;0.60;;;0.60;;
21634;SDS011;10979;48.306;9.830;2023-01-19T02:08:09;0.60;;;0.60;;
21634;SDS011;10979;48.306;9.830;2023-01-19T02:10:57;0.60;;;0.60;;
21634;SDS011;10979;48.306;9.830;2023-01-19T02:13:42;0.60;;;0.60;;
21634;SDS011;10979;48.306;9.830;2023-01-19T02:16:09;0.60;;;0.60;;
21634;SDS011;10979;48.306;9.830;2023-01-19T02:18:35;0.60;;;0.60;;
21634;SDS011;10979;48.306;9.830;2023-01-19T02:21:21;0.52;;;0.52;;
21634;SDS011;10979;48.306;9.830;2023-01-19T02:23:54;0.60;;;0.60;;
21634;SDS011;10979;48.306;9.830;2023-01-19T02:29:03;0.60;;;0.60;;
21634;SDS011;10979;48.306;9.830;2023-01-19T02:31:32;0.60;;;0.60;;
21634;SDS011;10979;48.306;9.830;2023-01-19T02:34:01;0.60;;;0.60;;
21634;SDS011;10979;48.306;9.830;2023-01-19T02:36:30;0.60;;;0.60;;
21634;SDS011;10979;48.306;9.830;2023-01-19T02:39:05;0.68;;;0.68;;
21634;SDS011;10979;48.306;9.830;2023-01-19T02:41:38;0.70;;;0.70;;
21634;SDS011;10979;48.306;9.830;2023-01-19T02:44:10;0.60;;;0.60;;
21634;SDS011;10979;48.306;9.830;2023-01-19T02:46:37;0.60;;;0.60;;
21634;SDS011;10979;48.306;9.830;2023-01-19T02:49:03;0.60;;;0.60;;
21634;SDS011;10979;48.306;9.830;2023-01-19T02:51:29;0.60;;;0.60;;
21634;SDS011;10979;48.306;9.830;2023-01-19T02:59:27;0.60;;;0.60;;
21634;SDS011;10979;48.306;9.830;2023-01-19T03:04:53;0.60;;;0.60;;
21634;SDS011;10979;48.306;9.830;2023-01-19T03:10:14;0.60;;;0.60;;
21634;SDS011;10979;48.306;9.830;2023-01-19T03:15:53;0.60;;;0.60;;
21634;SDS011;10979;48.306;9.830;2023-01-19T03:18:23;0.60;;;0.60;;
21634;SDS011;10979;48.306;9.830;2023-01-19T03:20:51;0.60;;;0.60;;
21634;SDS011;10979;48.306;9.830;2023-01-19T03:23:19;0.60;;;0.60;;
21634;SDS011;10979;48.306;9.830;2023-01-19T03:25:48;0.60;;;0.60;;
21634;SDS011;10979;48.306;9.830;2023-01-19T03:28:16;0.60;;;0.60;;
21634;SDS011;10979;48.306;9.830;2023-01-19T03:30:46;0.70;;;0.70;;
21634;SDS011;10979;48.306;9.830;2023-01-19T03:33:22;0.70;;;0.70;;
21634;SDS011;10979;48.306;9.830;2023-01-19T03:35:51;0.60;;;0.60;;
21634;SDS011;10979;48.306;9.830;2023-01-19T03:38:23;0.60;;;0.60;;
21634;SDS011;10979;48.306;9.830;2023-01-19T03:40:55;0.65;;;0.65;;
21634;SDS011;10979;48.306;9.830;2023-01-19T03:43:25;0.60;;;0.60;;
21634;SDS011;10979;48.306;9.830;2023-01-19T03:45:53;0.70;;;0.70;;
21634;SDS011;10979;48.306;9.830;2023-01-19T03:48:20;0.70;;;0.70;;
21634;SDS011;10979;48.306;9.830;2023-01-19T03:50:46;0.60;;;0.60;;
21634;SDS011;10979;48.306;9.830;2023-01-19T03:53:13;0.60;;;0.60;;
21634;SDS011;10979;48.306;9.830;2023-01-19T03:55:40;0.63;;;0.63;;
21634;SDS011;10979;48.306;9.830;2023-01-19T03:58:08;0.70;;;0.70;;
21634;SDS011;10979;48.306;9.830;2023-01-19T04:00:34;0.60;;;0.60;;
21634;SDS011;10979;48.306;9.830;2023-01-19T04:03:00;0.65;;;0.65;;
21634;SDS011;10979;48.306;9.830;2023-01-19T04:05:27;0.60;;;0.60;;
21634;SDS011;10979;48.306;9.830;2023-01-19T04:07:53;0.60;;;0.60;;
21634;SDS011;10979;48.306;9.830;2023-01-19T04:10:19;0.70;;;0.70;;
21634;SDS011;10979;48.306;9.830;2023-01-19T04:12:45;0.70;;;0.70;;
21634;SDS011;10979;48.306;9.830;2023-01-19T04:15:11;0.60;;;0.60;;
21634;SDS011;10979;48.306;9.830;2023-01-19T04:17:37;0.60;;;0.60;;
21634;SDS011;10979;48.306;9.830;2023-01-19T04:20:03;0.63;;;0.63;;
21634;SDS011;10979;48.306;9.830;2023-01-19T04:22:29;0.70;;;0.70;;
21634;SDS011;10979;48.306;9.830;2023-01-19T04:24:55;0.63;;;0.63;;
21634;SDS011;10979;48.306;9.830;2023-01-19T04:27:21;0.63;;;0.63;;
21634;SDS011;10979;48.306;9.830;2023-01-19T04:29:46;0.70;;;0.70;;
21634;SDS011;10979;48.306;9.830;2023-01-19T04:32:12;0.60;;;0.60;;
21634;SDS011;10979;48.306;9.830;2023-01-19T04:34:38;0.68;;;0.68;;
21634;SDS011;10979;48.306;9.830;2023-01-19T04:37:03;0.70;;;0.70;;
21634;SDS011;10979;48.306;9.830;2023-01-19T04:39:29;0.70;;;0.70;;
21634;SDS011;10979;48.306;9.830;2023-01-19T04:41:55;0.60;;;0.60;;
21634;SDS011;10979;48.306;9.830;2023-01-19T04:44:21;0.60;;;0.60;;
21634;SDS011;10979;48.306;9.830;2023-01-19T04:46:48;0.70;;;0.70;;
21634;SDS011;10979;48.306;9.830;2023-01-19T04:49:15;0.68;;;0.68;;
21634;SDS011;10979;48.306;9.830;2023-01-19T04:51:40;0.63;;;0.63;;
21634;SDS011;10979;48.306;9.830;2023-01-19T04:54:06;0.60;;;0.60;;
21634;SDS011;10979;48.306;9.830;2023-01-19T04:56:33;0.70;;;0.70;;
21634;SDS011;10979;48.306;9.830;2023-01-19T04:58:58;0.70;;;0.70;;
21634;SDS011;10979;48.306;9.830;2023-01-19T05:01:24;0.70;;;0.70;;
21634;SDS011;10979;48.306;9.830;2023-01-19T05:03:50;0.68;;;0.68;;
21634;SDS011;10979;48.306;9.830;2023-01-19T05:06:15;0.70;;;0.70;;
21634;SDS011;10979;48.306;9.830;2023-01-19T05:08:41;0.70;;;0.70;;
21634;SDS011;10979;48.306;9.830;2023-01-19T05:11:06;0.70;;;0.70;;
21634;SDS011;10979;48.306;9.830;2023-01-19T05:13:32;0.70;;;0.70;;
21634;SDS011;10979;48.306;9.830;2023-01-19T05:15:58;0.70;;;0.70;;
21634;SDS011;10979;48.306;9.830;2023-01-19T05:18:24;0.70;;;0.70;;
21634;SDS011;10979;48.306;9.830;2023-01-19T05:20:50;0.70;;;0.70;;
21634;SDS011;10979;48.306;9.830;2023-01-19T05:23:15;0.70;;;0.70;;
21634;SDS011;10979;48.306;9.830;2023-01-19T05:25:41;0.70;;;0.70;;
21634;SDS011;10979;48.306;9.830;2023-01-19T05:28:08;0.70;;;0.70;;
21634;SDS011;10979;48.306;9.830;2023-01-19T05:30:34;0.70;;;0.70;;
21634;SDS011;10979;48.306;9.830;2023-01-19T05:33:00;0.70;;;0.70;;
21634;SDS011;10979;48.306;9.830;2023-01-19T05:35:26;0.70;;;0.70;;
21634;SDS011;10979;48.306;9.830;2023-01-19T05:37:52;0.70;;;0.70;;
21634;SDS011;10979;48.306;9.830;2023-01-19T05:40:17;0.70;;;0.70;;
21634;SDS011;10979;48.306;9.830;2023-01-19T05:42:43;0.70;;;0.70;;
21634;SDS011;10979;48.306;9.830;2023-01-19T05:45:08;0.68;;;0.68;;
21634;SDS011;10979;48.306;9.830;2023-01-19T05:47:35;0.70;;;0.70;;
21634;SDS011;10979;48.306;9.830;2023-01-19T05:50:01;0.65;;;0.65;;
21634;SDS011;10979;48.306;9.830;2023-01-19T05:52:27;0.70;;;0.70;;
21634;SDS011;10979;48.306;9.830;2023-01-19T05:54:52;0.70;;;0.70;;
21634;SDS011;10979;48.306;9.830;2023-01-19T05:57:19;0.70;;;0.70;;
21634;SDS011;10979;48.306;9.830;2023-01-19T05:59:44;0.70;;;0.70;;
21634;SDS011;10979;48.306;9.830;2023-01-19T06:02:10;0.70;;;0.70;;
21634;SDS011;10979;48.306;9.830;2023-01-19T06:04:36;0.70;;;0.70;;
21634;SDS011;10979;48.306;9.830;2023-01-19T06:07:01;0.70;;;0.70;;
21634;SDS011;10979;48.306;9.830;2023-01-19T06:09:27;0.70;;;0.70;;
21634;SDS011;10979;48.306;9.830;2023-01-19T06:11:53;0.65;;;0.65;;
21634;SDS011;10979;48.306;9.830;2023-01-19T06:14:20;0.70;;;0.70;;
21634;SDS011;10979;48.306;9.830;2023-01-19T06:16:46;0.70;;;0.70;;
21634;SDS011;10979;48.306;9.830;2023-01-19T06:19:11;0.70;;;0.70;;
21634;SDS011;10979;48.306;9.830;2023-01-19T06:21:37;0.70;;;0.70;;
21634;SDS011;10979;48.306;9.830;2023-01-19T06:24:03;0.70;;;0.70;;
21634;SDS011;10979;48.306;9.830;2023-01-19T06:26:29;0.70;;;0.70;;
21634;SDS011;10979;48.306;9.830;2023-01-19T06:28:54;0.70;;;0.70;;
21634;SDS011;10979;48.306;9.830;2023-01-19T06:31:20;0.70;;;0.70;;
21634;SDS011;10979;48.306;9.830;2023-01-19T06:33:46;0.70;;;0.70;;
21634;SDS011;10979;48.306;9.830;2023-01-19T06:36:11;0.70;;;0.70;;
21634;SDS011;10979;48.306;9.830;2023-01-19T06:38:37;0.70;;;0.70;;
21634;SDS011;10979;48.306;9.830;2023-01-19T06:41:02;0.60;;;0.60;;
21634;SDS011;10979;48.306;9.830;2023-01-19T06:43:29;0.70;;;0.70;;
21634;SDS011;10979;48.306;9.830;2023-01-19T06:45:55;0.70;;;0.70;;
21634;SDS011;10979;48.306;9.830;2023-01-19T06:48:21;0.70;;;0.70;;
21634;SDS011;10979;48.306;9.830;2023-01-19T06:50:47;0.70;;;0.70;;
21634;SDS011;10979;48.306;9.830;2023-01-19T06:53:14;0.70;;;0.70;;
21634;SDS011;10979;48.306;9.830;2023-01-19T06:55:43;0.70;;;0.70;;
21634;SDS011;10979;48.306;9.830;2023-01-19T06:58:09;0.70;;;0.70;;
21634;SDS011;10979;48.306;9.830;2023-01-19T07:00:35;0.70;;;0.70;;
21634;SDS011;10979;48.306;9.830;2023-01-19T07:03:01;0.70;;;0.70;;
21634;SDS011;10979;48.306;9.830;2023-01-19T07:05:27;0.70;;;0.70;;
21634;SDS011;10979;48.306;9.830;2023-01-19T07:07:53;0.70;;;0.70;;
21634;SDS011;10979;48.306;9.830;2023-01-19T07:10:19;0.70;;;0.70;;
21634;SDS011;10979;48.306;9.830;2023-01-19T07:12:46;0.70;;;0.70;;
21634;SDS011;10979;48.306;9.830;2023-01-19T07:15:12;0.70;;;0.70;;
21634;SDS011;10979;48.306;9.830;2023-01-19T07:17:40;0.70;;;0.70;;
21634;SDS011;10979;48.306;9.830;2023-01-19T07:20:07;0.70;;;0.70;;
21634;SDS011;10979;48.306;9.830;2023-01-19T07:22:40;0.70;;;0.70;;
21634;SDS011;10979;48.306;9.830;2023-01-19T07:25:07;0.70;;;0.70;;
21634;SDS011;10979;48.306;9.830;2023-01-19T07:27:33;0.70;;;0.70;;
21634;SDS011;10979;48.306;9.830;2023-01-19T07:29:58;0.70;;;0.70;;
21634;SDS011;10979;48.306;9.830;2023-01-19T07:32:25;0.70;;;0.70;;
21634;SDS011;10979;48.306;9.830;2023-01-19T07:34:52;0.70;;;0.70;;
21634;SDS011;10979;48.306;9.830;2023-01-19T07:37:18;0.70;;;0.70;;
21634;SDS011;10979;48.306;9.830;2023-01-19T07:39:43;0.70;;;0.70;;
21634;SDS011;10979;48.306;9.830;2023-01-19T07:42:09;0.70;;;0.70;;
21634;SDS011;10979;48.306;9.830;2023-01-19T07:44:34;0.70;;;0.70;;
21634;SDS011;10979;48.306;9.830;2023-01-19T07:47:01;0.63;;;0.63;;
21634;SDS011;10979;48.306;9.830;2023-01-19T07:49:27;0.70;;;0.70;;
21634;SDS011;10979;48.306;9.830;2023-01-19T07:51:52;0.70;;;0.70;;
21634;SDS011;10979;48.306;9.830;2023-01-19T07:54:20;0.60;;;0.60;;
21634;SDS011;10979;48.306;9.830;2023-01-19T07:56:46;0.70;;;0.70;;
21634;SDS011;10979;48.306;9.830;2023-01-19T07:59:11;0.60;;;0.60;;
21634;SDS011;10979;48.306;9.830;2023-01-19T08:01:37;0.60;;;0.60;;
21634;SDS011;10979;48.306;9.830;2023-01-19T08:04:03;0.70;;;0.70;;
21634;SDS011;10979;48.306;9.830;2023-01-19T08:06:30;0.60;;;0.60;;
21634;SDS011;10979;48.306;9.830;2023-01-19T08:08:57;0.60;;;0.60;;
21634;SDS011;10979;48.306;9.830;2023-01-19T08:11:23;0.60;;;0.60;;
21634;SDS011;10979;48.306;9.830;2023-01-19T08:13:49;0.60;;;0.60;;
21634;SDS011;10979;48.306;9.830;2023-01-19T08:16:14;0.60;;;0.60;;
21634;SDS011;10979;48.306;9.830;2023-01-19T08:18:40;0.50;;;0.50;;
21634;SDS011;10979;48.306;9.830;2023-01-19T08:21:06;0.50;;;0.50;;
21634;SDS011;10979;48.306;9.830;2023-01-19T08:23:32;0.50;;;0.50;;
21634;SDS011;10979;48.306;9.830;2023-01-19T08:25:57;0.50;;;0.50;;
21634;SDS011;10979;48.306;9.830;2023-01-19T08:28:23;0.50;;;0.50;;
21634;SDS011;10979;48.306;9.830;2023-01-19T08:30:48;0.50;;;0.50;;
21634;SDS011;10979;48.306;9.830;2023-01-19T08:33:20;0.50;;;0.50;;
21634;SDS011;10979;48.306;9.830;2023-01-19T08:35:47;0.50;;;0.50;;
21634;SDS011;10979;48.306;9.830;2023-01-19T08:38:15;0.40;;;0.40;;
21634;SDS011;10979;48.306;9.830;2023-01-19T08:40:41;0.40;;;0.40;;
21634;SDS011;10979;48.306;9.830;2023-01-19T08:43:08;0.40;;;0.40;;
21634;SDS011;10979;48.306;9.830;2023-01-19T08:45:38;0.40;;;0.40;;
21634;SDS011;10979;48.306;9.830;2023-01-19T08:48:09;0.40;;;0.40;;
21634;SDS011;10979;48.306;9.830;2023-01-19T08:50:34;0.30;;;0.30;;
21634;SDS011;10979;48.306;9.830;2023-01-19T08:53:00;0.40;;;0.40;;
21634;SDS011;10979;48.306;9.830;2023-01-19T08:55:28;0.40;;;0.40;;
21634;SDS011;10979;48.306;9.830;2023-01-19T08:57:55;0.40;;;0.40;;
21634;SDS011;10979;48.306;9.830;2023-01-19T09:00:24;0.40;;;0.40;;
21634;SDS011;10979;48.306;9.830;2023-01-19T09:02:51;0.30;;;0.30;;
21634;SDS011;10979;48.306;9.830;2023-01-19T09:05:18;0.30;;;0.30;;
21634;SDS011;10979;48.306;9.830;2023-01-19T09:07:44;0.30;;;0.30;;
21634;SDS011;10979;48.306;9.830;2023-01-19T09:10:12;0.30;;;0.30;;
21634;SDS011;10979;48.306;9.830;2023-01-19T09:12:38;0.30;;;0.30;;
21634;SDS011;10979;48.306;9.830;2023-01-19T09:15:03;0.30;;;0.30;;
21634;SDS011;10979;48.306;9.830;2023-01-19T09:17:29;0.30;;;0.30;;
21634;SDS011;10979;48.306;9.830;2023-01-19T09:19:55;0.30;;;0.30;;
21634;SDS011;10979;48.306;9.830;2023-01-19T09:22:20;0.30;;;0.30;;
21634;SDS011;10979;48.306;9.830;2023-01-19T09:24:46;0.30;;;0.30;;
21634;SDS011;10979;48.306;9.830;2023-01-19T09:27:11;0.30;;;0.30;;
21634;SDS011;10979;48.306;9.830;2023-01-19T09:29:37;0.40;;;0.40;;
21634;SDS011;10979;48.306;9.830;2023-01-19T09:32:02;0.40;;;0.40;;
21634;SDS011;10979;48.306;9.830;2023-01-19T09:34:28;0.30;;;0.30;;
21634;SDS011;10979;48.306;9.830;2023-01-19T09:36:55;0.30;;;0.30;;
21634;SDS011;10979;48.306;9.830;2023-01-19T09:39:21;0.40;;;0.40;;
21634;SDS011;10979;48.306;9.830;2023-01-19T09:41:50;0.40;;;0.40;;
21634;SDS011;10979;48.306;9.830;2023-01-19T09:44:28;0.40;;;0.40;;
21634;SDS011;10979;48.306;9.830;2023-01-19T09:46:57;0.40;;;0.40;;
21634;SDS011;10979;48.306;9.830;2023-01-19T09:49:35;0.40;;;0.40;;
21634;SDS011;10979;48.306;9.830;2023-01-19T09:52:06;0.40;;;0.40;;
21634;SDS011;10979;48.306;9.830;2023-01-19T09:54:40;0.40;;;0.40;;
21634;SDS011;10979;48.306;9.830;2023-01-19T09:57:13;0.40;;;0.40;;
21634;SDS011;10979;48.306;9.830;2023-01-19T09:59:39;0.40;;;0.40;;
21634;SDS011;10979;48.306;9.830;2023-01-19T10:10:52;0.40;;;0.40;;
21634;SDS011;10979;48.306;9.830;2023-01-19T10:16:08;0.40;;;0.40;;
21634;SDS011;10979;48.306;9.830;2023-01-19T10:18:47;0.40;;;0.40;;
21634;SDS011;10979;48.306;9.830;2023-01-19T10:21:36;0.40;;;0.40;;
21634;SDS011;10979;48.306;9.830;2023-01-19T10:24:16;0.40;;;0.40;;
21634;SDS011;10979;48.306;9.830;2023-01-19T10:26:48;0.40;;;0.40;;
21634;SDS011;10979;48.306;9.830;2023-01-19T10:29:32;0.40;;;0.40;;
21634;SDS011;10979;48.306;9.830;2023-01-19T10:32:21;0.40;;;0.40;;
21634;SDS011;10979;48.306;9.830;2023-01-19T10:34:54;0.40;;;0.40;;
21634;SDS011;10979;48.306;9.830;2023-01-19T10:37:26;0.40;;;0.40;;
21634;SDS011;10979;48.306;9.830;2023-01-19T10:40:21;0.40;;;0.40;;
21634;SDS011;10979;48.306;9.830;2023-01-19T10:42:51;0.40;;;0.40;;
21634;SDS011;10979;48.306;9.830;2023-01-19T10:45:18;0.40;;;0.40;;
21634;SDS011;10979;48.306;9.830;2023-01-19T10:47:47;0.40;;;0.40;;
21634;SDS011;10979;48.306;9.830;2023-01-19T10:50:24;0.40;;;0.40;;
21634;SDS011;10979;48.306;9.830;2023-01-19T10:52:56;0.40;;;0.40;;
21634;SDS011;10979;48.306;9.830;2023-01-19T10:55:25;0.40;;;0.40;;
21634;SDS011;10979;48.306;9.830;2023-01-19T10:57:53;0.40;;;0.40;;
21634;SDS011;10979;48.306;9.830;2023-01-19T11:00:33;0.40;;;0.40;;
21634;SDS011;10979;48.306;9.830;2023-01-19T11:03:02;0.40;;;0.40;;
21634;SDS011;10979;48.306;9.830;2023-01-19T11:05:46;0.40;;;0.40;;
21634;SDS011;10979;48.306;9.830;2023-01-19T11:08:20;0.40;;;0.40;;
21634;SDS011;10979;48.306;9.830;2023-01-19T11:10:58;0.40;;;0.40;;
21634;SDS011;10979;48.306;9.830;2023-01-19T11:13:27;0.40;;;0.40;;
21634;SDS011;10979;48.306;9.830;2023-01-19T11:15:54;0.40;;;0.40;;
21634;SDS011;10979;48.306;9.830;2023-01-19T11:18:28;0.40;;;0.40;;
21634;SDS011;10979;48.306;9.830;2023-01-19T11:20:56;0.40;;;0.40;;
21634;SDS011;10979;48.306;9.830;2023-01-19T11:23:30;0.40;;;0.40;;
21634;SDS011;10979;48.306;9.830;2023-01-19T11:26:07;0.40;;;0.40;;
21634;SDS011;10979;48.306;9.830;2023-01-19T11:28:49;0.40;;;0.40;;
21634;SDS011;10979;48.306;9.830;2023-01-19T11:31:26;0.40;;;0.40;;
21634;SDS011;10979;48.306;9.830;2023-01-19T11:34:20;0.40;;;0.40;;
21634;SDS011;10979;48.306;9.830;2023-01-19T11:39:52;0.40;;;0.40;;
21634;SDS011;10979;48.306;9.830;2023-01-19T11:42:20;0.30;;;0.30;;
21634;SDS011;10979;48.306;9.830;2023-01-19T11:44:47;0.30;;;0.30;;
21634;SDS011;10979;48.306;9.830;2023-01-19T11:47:37;0.30;;;0.30;;
21634;SDS011;10979;48.306;9.830;2023-01-19T11:50:23;0.40;;;0.40;;
21634;SDS011;10979;48.306;9.830;2023-01-19T11:55:46;0.30;;;0.30;;
21634;SDS011;10979;48.306;9.830;2023-01-19T11:58:16;0.30;;;0.30;;
21634;SDS011;10979;48.306;9.830;2023-01-19T12:00:51;0.40;;;0.40;;
21634;SDS011;10979;48.306;9.830;2023-01-19T12:08:54;0.30;;;0.30;;
21634;SDS011;10979;48.306;9.830;2023-01-19T12:11:43;0.30;;;0.30;;
21634;SDS011;10979;48.306;9.830;2023-01-19T12:14:22;0.40;;;0.40;;
21634;SDS011;10979;48.306;9.830;2023-01-19T12:17:21;0.30;;;0.30;;
21634;SDS011;10979;48.306;9.830;2023-01-19T12:22:40;0.40;;;0.40;;
21634;SDS011;10979;48.306;9.830;2023-01-19T12:25:18;0.40;;;0.40;;
21634;SDS011;10979;48.306;9.830;2023-01-19T12:27:57;0.30;;;0.30;;
21634;SDS011;10979;48.306;9.830;2023-01-19T12:30:24;0.30;;;0.30;;
21634;SDS011;10979;48.306;9.830;2023-01-19T12:32:59;0.38;;;0.38;;
21634;SDS011;10979;48.306;9.830;2023-01-19T12:35:57;0.30;;;0.30;;
21634;SDS011;10979;48.306;9.830;2023-01-19T12:38:37;0.40;;;0.40;;
21634;SDS011;10979;48.306;9.830;2023-01-19T12:41:21;0.40;;;0.40;;
21634;SDS011;10979;48.306;9.830;2023-01-19T12:46:33;0.30;;;0.30;;
21634;SDS011;10979;48.306;9.830;2023-01-19T12:49:45;0.40;;;0.40;;
21634;SDS011;10979;48.306;9.830;2023-01-19T12:51:49;0.30;;;0.30;;
21634;SDS011;10979;48.306;9.830;2023-01-19T12:54:21;0.30;;;0.30;;
21634;SDS011;10979;48.306;9.830;2023-01-19T12:57:01;0.30;;;0.30;;
21634;SDS011;10979;48.306;9.830;2023-01-19T12:59:32;0.30;;;0.30;;
21634;SDS011;10979;48.306;9.830;2023-01-19T13:13:18;0.40;;;0.40;;
21634;SDS011;10979;48.306;9.830;2023-01-19T13:15:49;0.40;;;0.40;;
21634;SDS011;10979;48.306;9.830;2023-01-19T13:18:22;0.40;;;0.40;;
21634;SDS011;10979;48.306;9.830;2023-01-19T13:21:03;0.40;;;0.40;;
21634;SDS011;10979;48.306;9.830;2023-01-19T13:24:13;0.38;;;0.38;;
21634;SDS011;10979;48.306;9.830;2023-01-19T13:26:21;0.30;;;0.30;;
21634;SDS011;10979;48.306;9.830;2023-01-19T13:28:49;0.40;;;0.40;;
21634;SDS011;10979;48.306;9.830;2023-01-19T13:31:17;0.30;;;0.30;;
21634;SDS011;10979;48.306;9.830;2023-01-19T13:36:19;0.30;;;0.30;;
21634;SDS011;10979;48.306;9.830;2023-01-19T13:38:55;0.30;;;0.30;;
21634;SDS011;10979;48.306;9.830;2023-01-19T13:41:24;0.30;;;0.30;;
21634;SDS011;10979;48.306;9.830;2023-01-19T13:43:55;0.40;;;0.40;;
21634;SDS011;10979;48.306;9.830;2023-01-19T13:46:24;0.35;;;0.35;;
21634;SDS011;10979;48.306;9.830;2023-01-19T13:48:53;0.40;;;0.40;;
21634;SDS011;10979;48.306;9.830;2023-01-19T13:51:21;0.38;;;0.38;;
21634;SDS011;10979;48.306;9.830;2023-01-19T13:53:56;0.40;;;0.40;;
21634;SDS011;10979;48.306;9.830;2023-01-19T13:56:26;0.30;;;0.30;;
21634;SDS011;10979;48.306;9.830;2023-01-19T14:01:25;0.30;;;0.30;;
21634;SDS011;10979;48.306;9.830;2023-01-19T14:03:51;0.30;;;0.30;;
21634;SDS011;10979;48.306;9.830;2023-01-19T14:06:50;0.40;;;0.40;;
21634;SDS011;10979;48.306;9.830;2023-01-19T14:09:14;0.40;;;0.40;;
21634;SDS011;10979;48.306;9.830;2023-01-19T14:17:23;0.30;;;0.30;;
21634;SDS011;10979;48.306;9.830;2023-01-19T14:19:54;0.40;;;0.40;;
21634;SDS011;10979;48.306;9.830;2023-01-19T14:22:35;0.40;;;0.40;;
21634;SDS011;10979;48.306;9.830;2023-01-19T14:31:16;0.40;;;0.40;;
21634;SDS011;10979;48.306;9.830;2023-01-19T14:33:42;0.40;;;0.40;;
21634;SDS011;10979;48.306;9.830;2023-01-19T14:38:44;0.40;;;0.40;;
21634;SDS011;10979;48.306;9.830;2023-01-19T14:41:11;0.40;;;0.40;;
21634;SDS011;10979;48.306;9.830;2023-01-19T14:44:07;0.40;;;0.40;;
21634;SDS011;10979;48.306;9.830;2023-01-19T14:46:34;0.40;;;0.40;;
21634;SDS011;10979;48.306;9.830;2023-01-19T14:49:01;0.40;;;0.40;;
21634;SDS011;10979;48.306;9.830;2023-01-19T14:51:28;0.40;;;0.40;;
21634;SDS011;10979;48.306;9.830;2023-01-19T14:53:55;0.30;;;0.30;;
21634;SDS011;10979;48.306;9.830;2023-01-19T14:56:27;0.30;;;0.30;;
21634;SDS011;10979;48.306;9.830;2023-01-19T14:58:55;0.40;;;0.40;;
21634;SDS011;10979;48.306;9.830;2023-01-19T15:01:21;0.40;;;0.40;;
21634;SDS011;10979;48.306;9.830;2023-01-19T15:03:48;0.40;;;0.40;;
21634;SDS011;10979;48.306;9.830;2023-01-19T15:06:17;0.40;;;0.40;;
21634;SDS011;10979;48.306;9.830;2023-01-19T15:08:44;0.35;;;0.35;;
21634;SDS011;10979;48.306;9.830;2023-01-19T15:11:11;0.40;;;0.40;;
21634;SDS011;10979;48.306;9.830;2023-01-19T15:13:46;0.40;;;0.40;;
21634;SDS011;10979;48.306;9.830;2023-01-19T15:16:13;0.40;;;0.40;;
21634;SDS011;10979;48.306;9.830;2023-01-19T15:18:38;0.40;;;0.40;;
21634;SDS011;10979;48.306;9.830;2023-01-19T15:21:04;0.40;;;0.40;;
21634;SDS011;10979;48.306;9.830;2023-01-19T15:23:30;0.40;;;0.40;;
21634;SDS011;10979;48.306;9.830;2023-01-19T15:26:00;0.40;;;0.40;;
21634;SDS011;10979;48.306;9.830;2023-01-19T15:30:54;0.40;;;0.40;;
21634;SDS011;10979;48.306;9.830;2023-01-19T15:33:22;0.40;;;0.40;;
21634;SDS011;10979;48.306;9.830;2023-01-19T15:35:49;0.40;;;0.40;;
21634;SDS011;10979;48.306;9.830;2023-01-19T15:38:16;0.40;;;0.40;;
21634;SDS011;10979;48.306;9.830;2023-01-19T15:40:41;0.40;;;0.40;;
21634;SDS011;10979;48.306;9.830;2023-01-19T15:43:10;0.40;;;0.40;;
21634;SDS011;10979;48.306;9.830;2023-01-19T15:45:36;0.40;;;0.40;;
21634;SDS011;10979;48.306;9.830;2023-01-19T15:48:06;0.40;;;0.40;;
21634;SDS011;10979;48.306;9.830;2023-01-19T15:50:37;0.40;;;0.40;;
21634;SDS011;10979;48.306;9.830;2023-01-19T15:53:05;0.40;;;0.40;;
21634;SDS011;10979;48.306;9.830;2023-01-19T15:55:31;0.40;;;0.40;;
21634;SDS011;10979;48.306;9.830;2023-01-19T15:57:56;0.40;;;0.40;;
21634;SDS011;10979;48.306;9.830;2023-01-19T16:00:26;0.40;;;0.40;;
21634;SDS011;10979;48.306;9.830;2023-01-19T16:02:53;0.40;;;0.40;;
21634;SDS011;10979;48.306;9.830;2023-01-19T16:05:18;0.40;;;0.40;;
21634;SDS011;10979;48.306;9.830;2023-01-19T16:07:44;0.40;;;0.40;;
21634;SDS011;10979;48.306;9.830;2023-01-19T16:10:10;0.40;;;0.40;;
21634;SDS011;10979;48.306;9.830;2023-01-19T16:12:36;0.40;;;0.40;;
21634;SDS011;10979;48.306;9.830;2023-01-19T16:15:02;0.40;;;0.40;;
21634;SDS011;10979;48.306;9.830;2023-01-19T16:17:28;0.40;;;0.40;;
21634;SDS011;10979;48.306;9.830;2023-01-19T16:19:54;0.40;;;0.40;;